Time;durP1;ratioP1;P1;durP2;ratioP2;P2;SDS_P1;SDS_P2;PMS_P1;PMS_P2;Temp;Humidity;BMP_temperature;BMP_pressure;BME280_temperature;BME280_humidity;BME280_pressure;Samples;Min_cycle;Max_cycle;Signal;HPM_P1;HPM_P2
2023/04/25 00:01:35;;;;;;;8.90;4.90;;;;;;;12.41;91.36;97959.30;108014;1306;23003;-48
2023/04/25 00:04:02;;;;;;;8.70;5.10;;;;;;;12.41;91.46;97961.92;107998;1306;22842;-48
2023/04/25 00:06:27;;;;;;;6.40;5.40;;;;;;;12.39;92.15;97958.27;108036;1306;22791;-48
2023/04/25 00:08:53;;;;;;;6.20;4.90;;;;;;;12.39;92.60;97957.77;108010;1306;22859;-47
2023/04/25 00:11:18;;;;;;;8.50;5.00;;;;;;;12.40;92.95;97955.20;108029;1306;22439;-46
2023/04/25 00:13:43;;;;;;;6.70;4.90;;;;;;;12.37;91.41;97948.89;107999;1306;22466;-50
2023/04/25 00:16:09;;;;;;;6.30;5.10;;;;;;;12.35;92.37;97947.84;108019;1306;22206;-53
2023/04/25 00:18:34;;;;;;;6.80;4.80;;;;;;;12.36;91.29;97946.42;107998;1306;22393;-51
2023/04/25 00:21:00;;;;;;;7.80;5.20;;;;;;;12.35;92.36;97947.04;108017;1306;22223;-56
2023/04/25 00:23:26;;;;;;;7.00;5.30;;;;;;;12.36;91.48;97947.46;108012;1306;22211;-52
2023/04/25 00:25:51;;;;;;;6.70;4.30;;;;;;;12.36;91.55;97939.35;108015;1306;22258;-45
2023/04/25 00:28:19;;;;;;;12.40;4.90;;;;;;;12.37;91.79;97943.30;108021;1306;22413;-49
2023/04/25 00:30:44;;;;;;;;;;;;;;;12.37;91.61;97947.52;108029;1306;22467;-49
2023/04/25 00:33:09;;;;;;;14.20;4.70;;;;;;;12.36;92.19;97948.67;108032;1306;23211;-48
2023/04/25 00:35:35;;;;;;;5.10;4.30;;;;;;;12.36;91.97;97951.82;108025;1306;22210;-55
2023/04/25 00:38:01;;;;;;;7.80;4.60;;;;;;;12.35;91.65;97954.55;108036;1306;22322;-53
2023/04/25 00:40:27;;;;;;;6.40;4.40;;;;;;;12.26;91.78;97953.38;108039;1306;22239;-51
2023/04/25 00:42:53;;;;;;;6.20;4.80;;;;;;;12.19;91.08;97950.06;108037;1306;22415;-53
2023/04/25 00:45:19;;;;;;;7.70;4.70;;;;;;;12.15;91.30;97950.95;108037;1306;22231;-56
2023/04/25 00:47:45;;;;;;;6.00;4.20;;;;;;;12.12;91.12;97949.27;108026;1306;22207;-48
2023/04/25 00:50:11;;;;;;;6.10;4.20;;;;;;;12.08;92.09;97949.54;108042;1306;22235;-47
2023/04/25 00:52:42;;;;;;;6.00;4.70;;;;;;;12.06;92.08;97950.38;108042;1306;22202;-53
2023/04/25 00:55:08;;;;;;;7.30;4.30;;;;;;;12.03;92.16;97952.44;108030;1306;22452;-47
2023/04/25 00:57:34;;;;;;;5.90;4.30;;;;;;;11.95;92.89;97951.33;108019;1306;22448;-55
2023/04/25 00:59:59;;;;;;;10.20;4.40;;;;;;;11.93;92.97;97951.04;108053;1306;22263;-49
2023/04/25 01:02:25;;;;;;;5.80;4.70;;;;;;;11.91;92.32;97949.77;108029;1306;22119;-50
2023/04/25 01:04:51;;;;;;;6.20;4.40;;;;;;;11.87;92.94;97948.46;108011;1306;22196;-52
2023/04/25 01:07:16;;;;;;;13.40;4.30;;;;;;;11.88;92.50;97947.99;108005;1306;22292;-55
2023/04/25 01:09:41;;;;;;;4.30;3.80;;;;;;;11.86;92.57;97951.90;107996;1306;23057;-50
2023/04/25 01:12:07;;;;;;;8.40;4.20;;;;;;;11.83;93.28;97952.58;108008;1306;22274;-47
2023/04/25 01:14:32;;;;;;;6.80;4.10;;;;;;;11.84;92.38;97954.89;108022;1306;22104;-45
2023/04/25 01:16:58;;;;;;;6.30;4.30;;;;;;;11.82;91.51;97954.79;108016;1306;22244;-50
2023/04/25 01:19:24;;;;;;;4.80;3.80;;;;;;;11.79;92.21;97949.61;108039;1306;22283;-48
2023/04/25 01:21:50;;;;;;;5.60;4.10;;;;;;;11.75;93.06;97951.57;108026;1306;23149;-50
2023/04/25 01:24:15;;;;;;;4.60;3.90;;;;;;;11.69;93.90;97947.80;108033;1307;22236;-56
2023/04/25 01:26:44;;;;;;;7.50;4.10;;;;;;;11.72;92.85;97945.99;108012;1306;23059;-54
2023/04/25 01:29:10;;;;;;;4.50;3.80;;;;;;;11.70;93.11;97940.30;108015;1307;22430;-48
2023/04/25 01:31:36;;;;;;;5.70;4.10;;;;;;;11.70;93.10;97943.48;108022;1307;22428;-51
2023/04/25 01:34:02;;;;;;;4.60;3.80;;;;;;;11.71;92.64;97942.05;108033;1306;22316;-56
2023/04/25 01:36:28;;;;;;;4.30;3.70;;;;;;;11.73;92.11;97943.09;108032;1307;22385;-52
2023/04/25 01:38:53;;;;;;;5.00;3.70;;;;;;;11.71;92.60;97944.13;108048;1306;22234;-51
2023/04/25 01:41:19;;;;;;;5.30;3.90;;;;;;;11.71;92.02;97943.74;108036;1306;22489;-47
2023/04/25 01:43:44;;;;;;;5.30;4.10;;;;;;;11.68;92.48;97947.88;108008;1306;22399;-53
2023/04/25 01:46:11;;;;;;;5.90;3.70;;;;;;;11.66;92.44;97948.41;108037;1306;22952;-49
2023/04/25 01:48:37;;;;;;;5.80;4.60;;;;;;;11.64;91.88;97951.07;107837;1305;22366;-47
2023/04/25 01:51:03;;;;;;;5.10;3.60;;;;;;;11.60;92.27;97954.14;108025;1307;22234;-53
2023/04/25 01:53:28;;;;;;;4.70;3.70;;;;;;;11.55;93.66;97952.60;108031;1306;22205;-48
2023/04/25 01:55:53;;;;;;;9.40;4.10;;;;;;;11.48;93.88;97951.73;108008;1306;22721;-49
2023/04/25 01:58:19;;;;;;;8.00;3.60;;;;;;;11.45;93.41;97951.62;108020;1306;22274;-52
2023/04/25 02:00:44;;;;;;;6.40;3.70;;;;;;;11.42;93.93;97955.23;108022;1306;22249;-53
2023/04/25 02:03:09;;;;;;;4.70;4.10;;;;;;;11.37;95.12;97951.10;107913;1306;23059;-55
2023/04/25 02:05:39;;;;;;;7.60;3.90;;;;;;;11.37;94.84;97949.33;107861;1308;24221;-49
2023/04/25 02:08:06;;;;;;;7.10;4.50;;;;;;;11.38;94.68;97951.58;107867;1308;22262;-52
2023/04/25 02:10:31;;;;;;;6.40;4.50;;;;;;;11.35;94.59;97950.89;107857;1308;22269;-50
2023/04/25 02:12:57;;;;;;;5.70;4.40;;;;;;;11.31;96.14;97948.09;107889;1292;22240;-51
2023/04/25 02:15:23;;;;;;;4.90;3.60;;;;;;;11.25;97.09;97947.52;107856;1308;22858;-46
2023/04/25 02:17:48;;;;;;;6.40;4.20;;;;;;;11.23;96.64;97949.56;107873;1308;22197;-53
2023/04/25 02:20:15;;;;;;;5.60;3.80;;;;;;;11.27;95.10;97949.73;107864;1308;22432;-49
2023/04/25 02:22:41;;;;;;;7.10;4.70;;;;;;;11.27;94.86;97946.74;107876;1308;22226;-56
2023/04/25 02:25:07;;;;;;;4.60;3.80;;;;;;;11.24;95.71;97949.29;107870;1308;22467;-46
2023/04/25 02:27:32;;;;;;;5.90;4.20;;;;;;;11.11;96.65;97950.67;107868;1308;22223;-55
2023/04/25 02:29:58;;;;;;;6.30;4.40;;;;;;;11.18;94.45;97955.56;107884;1308;22210;-44
2023/04/25 02:32:23;;;;;;;6.20;4.40;;;;;;;11.11;94.98;97954.52;107875;1308;22990;-53
2023/04/25 02:34:48;;;;;;;7.50;4.60;;;;;;;11.12;95.81;97953.88;107878;1308;22416;-50
2023/04/25 02:37:14;;;;;;;6.60;4.30;;;;;;;11.13;94.96;97952.95;107872;1308;22204;-50
2023/04/25 02:39:39;;;;;;;6.20;4.20;;;;;;;11.16;94.93;97952.25;107904;1307;22495;-48
2023/04/25 02:42:04;;;;;;;5.00;3.90;;;;;;;11.16;93.60;97957.30;107858;1307;22244;-49
2023/04/25 02:44:30;;;;;;;6.40;3.90;;;;;;;11.11;92.39;97956.29;107878;1307;22159;-47
2023/04/25 02:46:55;;;;;;;6.30;4.30;;;;;;;11.03;91.71;97958.00;107876;1308;22227;-50
2023/04/25 02:49:20;;;;;;;9.60;4.20;;;;;;;10.97;91.67;97959.50;107879;1308;23248;-52
2023/04/25 02:51:46;;;;;;;4.60;3.70;;;;;;;10.86;91.80;97960.55;107879;1308;22235;-49
2023/04/25 02:54:11;;;;;;;4.20;3.70;;;;;;;10.79;91.42;97959.65;107879;1307;22503;-53
2023/04/25 02:56:36;;;;;;;3.60;3.10;;;;;;;10.81;89.72;97960.92;107748;1308;168413;-48
2023/04/25 02:59:02;;;;;;;5.40;3.50;;;;;;;10.73;89.30;97959.59;107883;1308;22898;-47
2023/04/25 03:04:09;;;;;;;5.40;3.50;;;;;;;10.61;90.70;97959.16;107001;1303;545286;-47
2023/04/25 03:06:34;;;;;;;7.60;4.10;;;;;;;10.55;90.65;97959.73;107351;1313;22234;-49
2023/04/25 03:09:00;;;;;;;3.80;3.50;;;;;;;10.49;91.94;97960.60;107378;1313;22225;-50
2023/04/25 03:11:25;;;;;;;4.80;4.00;;;;;;;10.47;92.99;97958.61;107394;1312;23272;-45
2023/04/25 03:13:51;;;;;;;7.50;4.30;;;;;;;10.50;92.55;97960.15;107410;1313;22261;-50
2023/04/25 03:16:16;;;;;;;7.20;4.60;;;;;;;10.47;93.23;97961.27;107403;1312;22303;-46
2023/04/25 03:18:41;;;;;;;7.10;4.00;;;;;;;10.46;92.97;97959.41;106768;1310;160149;-53
2023/04/25 03:21:07;;;;;;;7.60;3.90;;;;;;;10.48;92.69;97966.95;107455;1310;23079;-48
2023/04/25 03:23:32;;;;;;;5.10;3.90;;;;;;;10.45;91.47;97966.31;107665;1310;22473;-52
2023/04/25 03:25:58;;;;;;;4.60;3.60;;;;;;;10.36;92.51;97968.01;107678;1309;22117;-52
2023/04/25 03:28:23;;;;;;;4.00;3.50;;;;;;;10.32;92.04;97969.66;107828;1308;22238;-49
2023/04/25 03:30:48;;;;;;;3.70;3.20;;;;;;;10.27;92.31;97969.04;107855;1308;22422;-54
2023/04/25 03:33:13;;;;;;;3.80;3.20;;;;;;;10.20;92.80;97968.10;107816;1308;22225;-51
2023/04/25 03:35:39;;;;;;;7.40;3.20;;;;;;;10.21;92.43;97967.54;107798;1308;22300;-51
2023/04/25 03:38:04;;;;;;;3.90;3.20;;;;;;;10.23;91.29;97969.48;107827;1308;22179;-51
2023/04/25 03:40:29;;;;;;;5.10;3.10;;;;;;;10.12;91.62;97971.14;107860;1308;23043;-45
2023/04/25 03:42:55;;;;;;;4.50;3.60;;;;;;;10.07;92.09;97975.04;107810;1308;22941;-48
2023/04/25 03:45:20;;;;;;;3.10;2.80;;;;;;;10.07;91.36;97975.44;107799;1308;22247;-47
2023/04/25 03:47:45;;;;;;;4.50;3.10;;;;;;;10.01;90.26;97978.30;107832;1308;22314;-47
2023/04/25 03:50:10;;;;;;;5.90;3.20;;;;;;;9.86;90.36;97978.20;107798;1308;22999;-54
2023/04/25 03:52:36;;;;;;;3.60;3.10;;;;;;;9.84;90.06;97981.85;107838;1308;22472;-50
2023/04/25 03:55:01;;;;;;;4.50;3.10;;;;;;;9.74;91.95;97979.95;107825;1308;22311;-50
2023/04/25 03:57:26;;;;;;;2.70;2.50;;;;;;;9.72;91.83;97977.80;107816;1308;22239;-45
2023/04/25 03:59:52;;;;;;;4.80;2.70;;;;;;;9.75;90.37;97978.66;107820;1308;22536;-51
2023/04/25 04:02:18;;;;;;;5.00;2.30;;;;;;;9.68;89.83;97976.89;107826;1308;22063;-48
2023/04/25 04:04:43;;;;;;;2.80;2.60;;;;;;;9.61;89.49;97978.05;107826;1308;22397;-51
2023/04/25 04:07:10;;;;;;;4.80;2.50;;;;;;;9.62;88.93;97982.02;107837;1308;22384;-53
2023/04/25 04:09:35;;;;;;;4.30;3.10;;;;;;;9.60;88.20;97979.73;107830;1308;23266;-49
2023/04/25 04:12:01;;;;;;;5.00;2.50;;;;;;;9.59;88.23;97983.58;107819;1308;22240;-53
2023/04/25 04:14:26;;;;;;;2.40;2.10;;;;;;;9.66;88.37;97983.14;107824;1308;23304;-49
2023/04/25 04:16:52;;;;;;;2.50;2.30;;;;;;;9.70;87.74;97988.44;107828;1308;22230;-49
2023/04/25 04:19:17;;;;;;;4.60;2.00;;;;;;;9.74;87.79;97990.24;107824;1308;22224;-50
2023/04/25 04:21:43;;;;;;;2.40;2.20;;;;;;;9.73;86.93;97991.55;107829;1308;23113;-46
2023/04/25 04:24:08;;;;;;;2.40;2.10;;;;;;;9.72;86.72;97994.58;107805;1308;22249;-52
2023/04/25 04:26:34;;;;;;;2.30;2.10;;;;;;;9.71;86.91;97999.20;107799;1295;22226;-43
2023/04/25 04:29:00;;;;;;;3.10;2.40;;;;;;;9.73;86.53;97998.00;107800;1308;22912;-49
2023/04/25 04:31:25;;;;;;;3.10;2.10;;;;;;;9.70;86.60;97997.92;107809;1308;22251;-53
2023/04/25 04:33:51;;;;;;;2.70;2.20;;;;;;;9.69;86.08;98000.23;107814;1308;22249;-55
2023/04/25 04:36:19;;;;;;;4.70;2.40;;;;;;;9.73;86.37;98001.00;107821;1308;22319;-49
2023/04/25 04:38:45;;;;;;;2.30;2.00;;;;;;;9.74;85.96;98007.41;107844;1308;22255;-55
2023/04/25 04:41:10;;;;;;;4.50;1.70;;;;;;;9.71;85.09;98010.40;107826;1308;22209;-46
2023/04/25 04:43:36;;;;;;;2.10;1.80;;;;;;;9.74;84.61;98008.58;107828;1308;22183;-50
2023/04/25 04:46:03;;;;;;;3.00;1.70;;;;;;;9.68;83.24;98012.77;107827;1308;22279;-49
2023/04/25 04:48:32;;;;;;;2.30;2.10;;;;;;;9.57;82.75;98011.40;107826;1308;22817;-49
2023/04/25 04:50:58;;;;;;;2.80;2.00;;;;;;;9.55;82.85;98007.38;107818;1308;22962;-56
2023/04/25 04:53:23;;;;;;;2.50;2.30;;;;;;;9.51;83.42;98003.58;107812;1308;22227;-53
